KIJX/IJX METAR and TAF weather

Enter ICAO airport designator
Station Type Date Time Source
KIJX METAR 2020/07/14 23:15 UTC NOAA

KIJX 142315Z AUTO 15009KT 10SM CLR 30/21 A2994 RMK AO2 T02990206


Station Type Date Time Source
KIJX Decoded METAR 2020/07/14 23:15 UTC NOAA

Jacksonville, Jacksonville Municipal Airport, IL, United States (KIJX) 39-46-27N 090-14-19W
Jul 14, 2020 - 07:15 PM EDT / 2020.07.14 2315 UTC
Wind: from the SSE (150 degrees) at 10 MPH (9 KT):0
Visibility: 10 mile(s):0
Sky conditions: clear
Temperature: 85.8 F (29.9 C)
Dew Point: 69.1 F (20.6 C)
Relative Humidity: 57%
Pressure (altimeter): 29.94 in. Hg (1013 hPa)
ob: KIJX 142315Z AUTO 15009KT 10SM CLR 30/21 A2994 RMK AO2 T02990206
cycle: 23

Station Type Date Time Source
KIJX TAF UTC NOAA

Error!

Example: see airport list